sensor_id;sensor_type;location;lat;lon;timestamp;pressure;altitude;pressure_sealevel;temperature;humidity
24825;BME280;12910;57.690;11.974;2023-02-02T00:00:43;99581.19;;;0.05;100.00
24825;BME280;12910;57.690;11.974;2023-02-02T00:03:08;99593.03;;;0.07;100.00
24825;BME280;12910;57.690;11.974;2023-02-02T00:05:35;99593.50;;;-0.02;100.00
24825;BME280;12910;57.690;11.974;2023-02-02T00:08:00;99602.91;;;0.03;100.00
24825;BME280;12910;57.690;11.974;2023-02-02T00:10:25;99606.44;;;-0.13;100.00
24825;BME280;12910;57.690;11.974;2023-02-02T00:12:51;99601.25;;;-0.36;100.00
24825;BME280;12910;57.690;11.974;2023-02-02T00:15:16;99611.28;;;-0.38;100.00
24825;BME280;12910;57.690;11.974;2023-02-02T00:17:41;99609.94;;;-0.49;100.00
24825;BME280;12910;57.690;11.974;2023-02-02T00:20:07;99629.69;;;-0.39;100.00
24825;BME280;12910;57.690;11.974;2023-02-02T00:22:32;99622.94;;;-0.40;100.00
24825;BME280;12910;57.690;11.974;2023-02-02T00:24:58;99630.53;;;-0.38;100.00
24825;BME280;12910;57.690;11.974;2023-02-02T00:27:23;99627.81;;;-0.43;100.00
24825;BME280;12910;57.690;11.974;2023-02-02T00:29:49;99638.44;;;-0.30;100.00
24825;BME280;12910;57.690;11.974;2023-02-02T00:32:18;99630.09;;;-0.29;100.00
24825;BME280;12910;57.690;11.974;2023-02-02T00:34:43;99638.59;;;-0.27;100.00
24825;BME280;12910;57.690;11.974;2023-02-02T00:37:09;99654.34;;;-0.32;100.00
24825;BME280;12910;57.690;11.974;2023-02-02T00:39:34;99652.09;;;-0.45;100.00
24825;BME280;12910;57.690;11.974;2023-02-02T00:41:59;99651.22;;;-0.45;100.00
24825;BME280;12910;57.690;11.974;2023-02-02T00:44:25;99667.09;;;-0.47;100.00
24825;BME280;12910;57.690;11.974;2023-02-02T00:47:09;99675.78;;;-0.40;100.00
24825;BME280;12910;57.690;11.974;2023-02-02T00:49:34;99667.41;;;-0.58;100.00
24825;BME280;12910;57.690;11.974;2023-02-02T00:51:59;99689.69;;;-0.48;100.00
24825;BME280;12910;57.690;11.974;2023-02-02T00:54:25;99684.19;;;-0.59;100.00
24825;BME280;12910;57.690;11.974;2023-02-02T00:56:50;99703.59;;;-0.56;100.00
24825;BME280;12910;57.690;11.974;2023-02-02T00:59:16;99694.31;;;-0.57;100.00
24825;BME280;12910;57.690;11.974;2023-02-02T01:01:41;99685.25;;;-0.72;100.00
24825;BME280;12910;57.690;11.974;2023-02-02T01:04:07;99670.25;;;-0.88;100.00
24825;BME280;12910;57.690;11.974;2023-02-02T01:06:32;99733.94;;;-0.71;100.00
24825;BME280;12910;57.690;11.974;2023-02-02T01:08:57;99718.47;;;-0.79;100.00
24825;BME280;12910;57.690;11.974;2023-02-02T01:11:23;99736.88;;;-0.80;100.00
24825;BME280;12910;57.690;11.974;2023-02-02T01:13:50;99737.19;;;-0.74;100.00
24825;BME280;12910;57.690;11.974;2023-02-02T01:16:15;99744.22;;;-0.67;100.00
24825;BME280;12910;57.690;11.974;2023-02-02T01:18:41;99755.63;;;-0.73;100.00
24825;BME280;12910;57.690;11.974;2023-02-02T01:21:08;99739.88;;;-0.87;100.00
24825;BME280;12910;57.690;11.974;2023-02-02T01:23:35;99757.16;;;-0.77;100.00
24825;BME280;12910;57.690;11.974;2023-02-02T01:26:04;99748.03;;;-0.75;100.00
24825;BME280;12910;57.690;11.974;2023-02-02T01:28:30;99769.38;;;-0.67;100.00
24825;BME280;12910;57.690;11.974;2023-02-02T01:30:56;99773.41;;;-0.70;100.00
24825;BME280;12910;57.690;11.974;2023-02-02T01:33:23;99787.63;;;-0.71;100.00
24825;BME280;12910;57.690;11.974;2023-02-02T01:35:50;99777.28;;;-0.77;100.00
24825;BME280;12910;57.690;11.974;2023-02-02T01:38:17;99790.44;;;-0.65;100.00
24825;BME280;12910;57.690;11.974;2023-02-02T01:40:47;99789.34;;;-0.70;100.00
24825;BME280;12910;57.690;11.974;2023-02-02T01:43:20;99792.66;;;-0.71;100.00
24825;BME280;12910;57.690;11.974;2023-02-02T01:45:47;99795.88;;;-0.73;100.00
24825;BME280;12910;57.690;11.974;2023-02-02T01:48:12;99804.94;;;-0.77;100.00
24825;BME280;12910;57.690;11.974;2023-02-02T01:50:39;99814.00;;;-0.81;100.00
24825;BME280;12910;57.690;11.974;2023-02-02T01:53:05;99807.63;;;-0.74;100.00
24825;BME280;12910;57.690;11.974;2023-02-02T01:55:31;99804.94;;;-0.77;100.00
24825;BME280;12910;57.690;11.974;2023-02-02T01:58:02;99805.34;;;-0.86;100.00
24825;BME280;12910;57.690;11.974;2023-02-02T02:00:29;99814.72;;;-0.83;100.00
24825;BME280;12910;57.690;11.974;2023-02-02T02:02:57;99829.31;;;-0.76;100.00
24825;BME280;12910;57.690;11.974;2023-02-02T02:05:28;99825.56;;;-0.84;100.00
24825;BME280;12910;57.690;11.974;2023-02-02T02:08:05;99846.19;;;-0.91;100.00
24825;BME280;12910;57.690;11.974;2023-02-02T02:10:32;99845.78;;;-0.99;100.00
24825;BME280;12910;57.690;11.974;2023-02-02T02:12:59;99857.66;;;-0.97;100.00
24825;BME280;12910;57.690;11.974;2023-02-02T02:15:25;99858.13;;;-1.04;100.00
24825;BME280;12910;57.690;11.974;2023-02-02T02:27:24;99906.53;;;-1.08;100.00
24825;BME280;12910;57.690;11.974;2023-02-02T02:32:49;99922.63;;;-1.04;100.00
24825;BME280;12910;57.690;11.974;2023-02-02T02:38:41;99921.88;;;-1.20;100.00
24825;BME280;12910;57.690;11.974;2023-02-02T02:41:12;99930.25;;;-1.19;100.00
24825;BME280;12910;57.690;11.974;2023-02-02T02:43:54;99930.41;;;-1.33;100.00
24825;BME280;12910;57.690;11.974;2023-02-02T02:46:22;99936.06;;;-1.37;100.00
24825;BME280;12910;57.690;11.974;2023-02-02T02:48:48;99931.00;;;-1.53;100.00
24825;BME280;12910;57.690;11.974;2023-02-02T02:51:43;99947.88;;;-1.51;100.00
24825;BME280;12910;57.690;11.974;2023-02-02T02:54:30;99950.25;;;-1.54;100.00
24825;BME280;12910;57.690;11.974;2023-02-02T03:10:32;99972.00;;;-1.69;100.00
24825;BME280;12910;57.690;11.974;2023-02-02T03:12:59;99973.50;;;-1.73;100.00
24825;BME280;12910;57.690;11.974;2023-02-02T03:15:24;99978.53;;;-1.73;100.00
24825;BME280;12910;57.690;11.974;2023-02-02T03:17:51;99995.31;;;-1.72;100.00
24825;BME280;12910;57.690;11.974;2023-02-02T03:20:18;99995.56;;;-1.67;100.00
24825;BME280;12910;57.690;11.974;2023-02-02T03:22:43;100004.94;;;-1.65;100.00
24825;BME280;12910;57.690;11.974;2023-02-02T03:25:09;100000.34;;;-1.72;100.00
24825;BME280;12910;57.690;11.974;2023-02-02T03:27:38;100016.13;;;-1.75;100.00
24825;BME280;12910;57.690;11.974;2023-02-02T03:30:05;100018.91;;;-1.70;100.00
24825;BME280;12910;57.690;11.974;2023-02-02T03:32:32;100021.16;;;-1.75;100.00
24825;BME280;12910;57.690;11.974;2023-02-02T03:34:57;100029.91;;;-1.83;100.00
24825;BME280;12910;57.690;11.974;2023-02-02T03:37:22;100036.63;;;-1.82;100.00
24825;BME280;12910;57.690;11.974;2023-02-02T03:39:48;100047.03;;;-1.91;100.00
24825;BME280;12910;57.690;11.974;2023-02-02T03:42:14;100061.16;;;-1.93;100.00
24825;BME280;12910;57.690;11.974;2023-02-02T03:44:39;100069.81;;;-2.02;100.00
24825;BME280;12910;57.690;11.974;2023-02-02T03:47:05;100069.63;;;-2.06;100.00
24825;BME280;12910;57.690;11.974;2023-02-02T03:49:30;100087.47;;;-2.01;100.00
24825;BME280;12910;57.690;11.974;2023-02-02T03:51:56;100080.72;;;-2.02;100.00
24825;BME280;12910;57.690;11.974;2023-02-02T03:54:22;100082.72;;;-1.96;100.00
24825;BME280;12910;57.690;11.974;2023-02-02T03:56:47;100084.53;;;-1.94;100.00
24825;BME280;12910;57.690;11.974;2023-02-02T03:59:12;100100.28;;;-1.96;100.00
24825;BME280;12910;57.690;11.974;2023-02-02T04:01:38;100091.72;;;-2.00;100.00
24825;BME280;12910;57.690;11.974;2023-02-02T04:04:03;100096.38;;;-1.91;100.00
24825;BME280;12910;57.690;11.974;2023-02-02T04:06:28;100094.94;;;-2.02;100.00
24825;BME280;12910;57.690;11.974;2023-02-02T04:08:54;100079.66;;;-2.21;100.00
24825;BME280;12910;57.690;11.974;2023-02-02T04:11:19;100098.19;;;-2.18;100.00
24825;BME280;12910;57.690;11.974;2023-02-02T04:13:45;100113.25;;;-2.18;100.00
24825;BME280;12910;57.690;11.974;2023-02-02T04:16:11;100126.75;;;-2.16;100.00
24825;BME280;12910;57.690;11.974;2023-02-02T04:18:36;100136.06;;;-2.29;100.00
24825;BME280;12910;57.690;11.974;2023-02-02T04:21:03;100130.44;;;-2.25;100.00
24825;BME280;12910;57.690;11.974;2023-02-02T04:23:29;100132.59;;;-2.31;100.00
24825;BME280;12910;57.690;11.974;2023-02-02T04:25:55;100141.56;;;-2.35;100.00
24825;BME280;12910;57.690;11.974;2023-02-02T04:28:21;100138.72;;;-2.41;100.00
24825;BME280;12910;57.690;11.974;2023-02-02T04:30:48;100141.56;;;-2.35;100.00
24825;BME280;12910;57.690;11.974;2023-02-02T04:33:14;100157.47;;;-2.34;100.00
24825;BME280;12910;57.690;11.974;2023-02-02T04:35:39;100156.13;;;-2.29;100.00
24825;BME280;12910;57.690;11.974;2023-02-02T04:38:04;100157.47;;;-2.34;100.00
24825;BME280;12910;57.690;11.974;2023-02-02T04:40:30;100158.94;;;-2.24;100.00
24825;BME280;12910;57.690;11.974;2023-02-02T04:42:56;100161.53;;;-2.23;100.00
24825;BME280;12910;57.690;11.974;2023-02-02T04:45:21;100171.38;;;-2.26;100.00
24825;BME280;12910;57.690;11.974;2023-02-02T04:47:47;100172.59;;;-2.19;100.00
24825;BME280;12910;57.690;11.974;2023-02-02T04:50:12;100171.38;;;-2.26;100.00
24825;BME280;12910;57.690;11.974;2023-02-02T04:52:38;100178.78;;;-2.14;100.00
24825;BME280;12910;57.690;11.974;2023-02-02T04:55:03;100182.00;;;-2.16;100.00
24825;BME280;12910;57.690;11.974;2023-02-02T04:57:29;100191.16;;;-2.17;100.00
24825;BME280;12910;57.690;11.974;2023-02-02T04:59:55;100178.41;;;-2.20;100.00
24825;BME280;12910;57.690;11.974;2023-02-02T05:02:20;100194.91;;;-2.10;100.00
24825;BME280;12910;57.690;11.974;2023-02-02T05:04:45;100198.69;;;-2.17;100.00
24825;BME280;12910;57.690;11.974;2023-02-02T05:07:11;100209.63;;;-2.30;100.00
24825;BME280;12910;57.690;11.974;2023-02-02T05:09:36;100205.09;;;-2.36;100.00
24825;BME280;12910;57.690;11.974;2023-02-02T05:12:02;100207.31;;;-2.40;100.00
24825;BME280;12910;57.690;11.974;2023-02-02T05:14:27;100224.50;;;-2.46;100.00
24825;BME280;12910;57.690;11.974;2023-02-02T05:16:52;100226.81;;;-2.49;100.00
24825;BME280;12910;57.690;11.974;2023-02-02T05:19:18;100241.78;;;-2.51;100.00
24825;BME280;12910;57.690;11.974;2023-02-02T05:21:44;100227.31;;;-2.55;100.00
24825;BME280;12910;57.690;11.974;2023-02-02T05:24:10;100240.13;;;-2.51;100.00
24825;BME280;12910;57.690;11.974;2023-02-02T05:26:37;100248.44;;;-2.52;100.00
24825;BME280;12910;57.690;11.974;2023-02-02T05:29:02;100243.22;;;-2.55;100.00
24825;BME280;12910;57.690;11.974;2023-02-02T05:31:28;100242.34;;;-2.55;100.00
24825;BME280;12910;57.690;11.974;2023-02-02T05:33:55;100253.44;;;-2.52;100.00
24825;BME280;12910;57.690;11.974;2023-02-02T05:36:20;100262.72;;;-2.51;100.00
24825;BME280;12910;57.690;11.974;2023-02-02T05:38:46;100260.91;;;-2.53;100.00
24825;BME280;12910;57.690;11.974;2023-02-02T05:41:11;100275.06;;;-2.54;100.00
24825;BME280;12910;57.690;11.974;2023-02-02T05:43:37;100272.75;;;-2.51;100.00
24825;BME280;12910;57.690;11.974;2023-02-02T05:46:02;100266.31;;;-2.60;100.00
24825;BME280;12910;57.690;11.974;2023-02-02T05:48:27;100281.66;;;-2.56;100.00
24825;BME280;12910;57.690;11.974;2023-02-02T05:51:01;100285.31;;;-2.51;100.00
24825;BME280;12910;57.690;11.974;2023-02-02T05:53:29;100293.41;;;-2.41;100.00
24825;BME280;12910;57.690;11.974;2023-02-02T05:55:54;100288.59;;;-2.38;100.00
24825;BME280;12910;57.690;11.974;2023-02-02T05:58:19;100274.50;;;-2.49;100.00
24825;BME280;12910;57.690;11.974;2023-02-02T06:00:45;100301.16;;;-2.38;100.00
24825;BME280;12910;57.690;11.974;2023-02-02T06:03:10;100324.03;;;-2.33;100.00
24825;BME280;12910;57.690;11.974;2023-02-02T06:05:37;100321.41;;;-2.48;100.00
24825;BME280;12910;57.690;11.974;2023-02-02T06:08:02;100330.66;;;-2.61;100.00
24825;BME280;12910;57.690;11.974;2023-02-02T06:10:28;100336.25;;;-2.65;100.00
24825;BME280;12910;57.690;11.974;2023-02-02T06:12:55;100345.47;;;-2.77;100.00
24825;BME280;12910;57.690;11.974;2023-02-02T06:15:21;100347.78;;;-2.80;100.00
24825;BME280;12910;57.690;11.974;2023-02-02T06:17:46;100355.78;;;-2.86;100.00
24825;BME280;12910;57.690;11.974;2023-02-02T06:20:12;100349.69;;;-2.90;100.00
24825;BME280;12910;57.690;11.974;2023-02-02T06:22:37;100361.47;;;-2.89;100.00
24825;BME280;12910;57.690;11.974;2023-02-02T06:25:03;100365.03;;;-2.85;100.00
24825;BME280;12910;57.690;11.974;2023-02-02T06:27:30;100332.50;;;-2.97;100.00
24825;BME280;12910;57.690;11.974;2023-02-02T06:29:55;100364.94;;;-2.87;100.00
24825;BME280;12910;57.690;11.974;2023-02-02T06:32:21;100358.78;;;-2.78;100.00
24825;BME280;12910;57.690;11.974;2023-02-02T06:34:46;100359.59;;;-2.66;100.00
24825;BME280;12910;57.690;11.974;2023-02-02T06:37:11;100368.28;;;-2.61;100.00
24825;BME280;12910;57.690;11.974;2023-02-02T06:39:37;100364.31;;;-2.57;100.00
24825;BME280;12910;57.690;11.974;2023-02-02T06:42:02;100365.09;;;-2.58;100.00
24825;BME280;12910;57.690;11.974;2023-02-02T06:44:27;100380.56;;;-2.52;100.00
24825;BME280;12910;57.690;11.974;2023-02-02T06:46:53;100381.22;;;-2.55;100.00
24825;BME280;12910;57.690;11.974;2023-02-02T06:49:19;100390.47;;;-2.54;100.00
24825;BME280;12910;57.690;11.974;2023-02-02T06:51:46;100389.50;;;-2.69;100.00
24825;BME280;12910;57.690;11.974;2023-02-02T06:54:12;100404.53;;;-2.69;100.00
24825;BME280;12910;57.690;11.974;2023-02-02T06:56:38;100405.81;;;-2.62;100.00
24825;BME280;12910;57.690;11.974;2023-02-02T06:59:03;100416.31;;;-2.68;100.00
24825;BME280;12910;57.690;11.974;2023-02-02T07:01:29;100418.97;;;-2.78;100.00
24825;BME280;12910;57.690;11.974;2023-02-02T07:03:54;100422.25;;;-2.79;100.00
24825;BME280;12910;57.690;11.974;2023-02-02T07:06:22;100427.66;;;-2.73;100.00
24825;BME280;12910;57.690;11.974;2023-02-02T07:08:49;100438.66;;;-2.85;100.00
24825;BME280;12910;57.690;11.974;2023-02-02T07:11:16;100432.41;;;-3.03;100.00
24825;BME280;12910;57.690;11.974;2023-02-02T07:13:46;100448.66;;;-3.10;100.00
24825;BME280;12910;57.690;11.974;2023-02-02T07:16:12;100444.56;;;-2.96;100.00
24825;BME280;12910;57.690;11.974;2023-02-02T07:18:38;100451.16;;;-3.10;100.00
24825;BME280;12910;57.690;11.974;2023-02-02T07:21:05;100454.06;;;-3.04;100.00
24825;BME280;12910;57.690;11.974;2023-02-02T07:23:31;100461.19;;;-3.10;100.00
24825;BME280;12910;57.690;11.974;2023-02-02T07:26:05;100469.13;;;-3.04;100.00
24825;BME280;12910;57.690;11.974;2023-02-02T07:28:32;100459.63;;;-2.96;100.00
24825;BME280;12910;57.690;11.974;2023-02-02T07:30:58;100472.91;;;-2.97;100.00
24825;BME280;12910;57.690;11.974;2023-02-02T07:33:23;100467.94;;;-3.21;100.00
24825;BME280;12910;57.690;11.974;2023-02-02T07:35:48;100471.75;;;-3.14;100.00
24825;BME280;12910;57.690;11.974;2023-02-02T07:38:14;100474.03;;;-3.17;100.00
24825;BME280;12910;57.690;11.974;2023-02-02T07:40:39;100462.41;;;-3.17;100.00
24825;BME280;12910;57.690;11.974;2023-02-02T07:43:05;100483.31;;;-3.04;100.00
24825;BME280;12910;57.690;11.974;2023-02-02T07:45:31;100480.94;;;-3.15;100.00
24825;BME280;12910;57.690;11.974;2023-02-02T07:47:59;100490.50;;;-3.09;100.00
24825;BME280;12910;57.690;11.974;2023-02-02T07:50:26;100496.72;;;-3.16;100.00
24825;BME280;12910;57.690;11.974;2023-02-02T07:52:51;100490.84;;;-3.28;100.00
24825;BME280;12910;57.690;11.974;2023-02-02T07:55:17;100508.31;;;-3.30;100.00
24825;BME280;12910;57.690;11.974;2023-02-02T07:57:42;100486.53;;;-3.42;100.00
24825;BME280;12910;57.690;11.974;2023-02-02T08:00:08;100516.47;;;-3.20;100.00
24825;BME280;12910;57.690;11.974;2023-02-02T08:02:34;100505.00;;;-3.17;100.00
24825;BME280;12910;57.690;11.974;2023-02-02T08:05:00;100530.50;;;-3.10;100.00
24825;BME280;12910;57.690;11.974;2023-02-02T08:07:25;100520.28;;;-3.14;100.00
24825;BME280;12910;57.690;11.974;2023-02-02T08:09:51;100525.94;;;-3.04;100.00
24825;BME280;12910;57.690;11.974;2023-02-02T08:12:17;100529.19;;;-3.05;100.00
24825;BME280;12910;57.690;11.974;2023-02-02T08:14:43;100533.19;;;-2.95;100.00
24825;BME280;12910;57.690;11.974;2023-02-02T08:17:08;100540.28;;;-2.90;100.00
24825;BME280;12910;57.690;11.974;2023-02-02T08:19:34;100557.59;;;-2.81;100.00
24825;BME280;12910;57.690;11.974;2023-02-02T08:21:59;100548.09;;;-2.85;100.00
24825;BME280;12910;57.690;11.974;2023-02-02T08:24:24;100556.16;;;-2.77;100.00
24825;BME280;12910;57.690;11.974;2023-02-02T08:26:50;100558.31;;;-2.70;100.00
24825;BME280;12910;57.690;11.974;2023-02-02T08:29:15;100560.97;;;-2.80;100.00
24825;BME280;12910;57.690;11.974;2023-02-02T08:31:42;100552.69;;;-2.79;100.00
24825;BME280;12910;57.690;11.974;2023-02-02T08:34:09;100557.03;;;-2.77;100.00
24825;BME280;12910;57.690;11.974;2023-02-02T08:36:34;100557.34;;;-2.72;100.00
24825;BME280;12910;57.690;11.974;2023-02-02T08:39:02;100560.94;;;-2.69;100.00
24825;BME280;12910;57.690;11.974;2023-02-02T08:41:30;100559.31;;;-2.68;100.00
24825;BME280;12910;57.690;11.974;2023-02-02T08:43:56;100559.00;;;-2.73;100.00
24825;BME280;12910;57.690;11.974;2023-02-02T08:46:22;100538.75;;;-2.88;100.00
24825;BME280;12910;57.690;11.974;2023-02-02T08:48:47;100554.06;;;-2.71;100.00
24825;BME280;12910;57.690;11.974;2023-02-02T08:51:15;100564.41;;;-2.67;100.00
24825;BME280;12910;57.690;11.974;2023-02-02T08:53:44;100573.16;;;-2.73;100.00
24825;BME280;12910;57.690;11.974;2023-02-02T08:56:18;100574.28;;;-2.70;100.00
24825;BME280;12910;57.690;11.974;2023-02-02T08:58:45;100589.50;;;-2.67;100.00
24825;BME280;12910;57.690;11.974;2023-02-02T09:01:23;100607.19;;;-2.77;100.00
24825;BME280;12910;57.690;11.974;2023-02-02T09:03:56;100604.06;;;-2.74;100.00
24825;BME280;12910;57.690;11.974;2023-02-02T09:06:37;100608.28;;;-2.73;100.00
24825;BME280;12910;57.690;11.974;2023-02-02T09:09:05;100616.78;;;-2.71;100.00
24825;BME280;12910;57.690;11.974;2023-02-02T09:11:31;100624.53;;;-2.68;100.00
24825;BME280;12910;57.690;11.974;2023-02-02T09:13:58;100617.88;;;-2.68;100.00
24825;BME280;12910;57.690;11.974;2023-02-02T09:16:24;100628.44;;;-2.60;100.00
24825;BME280;12910;57.690;11.974;2023-02-02T09:18:50;100637.28;;;-2.53;100.00
24825;BME280;12910;57.690;11.974;2023-02-02T09:21:17;100636.59;;;-2.51;100.00
24825;BME280;12910;57.690;11.974;2023-02-02T09:23:44;100651.22;;;-2.45;100.00
24825;BME280;12910;57.690;11.974;2023-02-02T09:26:21;100645.13;;;-2.48;100.00
24825;BME280;12910;57.690;11.974;2023-02-02T09:28:55;100661.66;;;-2.39;100.00
24825;BME280;12910;57.690;11.974;2023-02-02T09:31:21;100666.16;;;-2.35;100.00
24825;BME280;12910;57.690;11.974;2023-02-02T09:33:47;100661.53;;;-2.28;100.00
24825;BME280;12910;57.690;11.974;2023-02-02T09:36:21;100665.38;;;-2.33;100.00
24825;BME280;12910;57.690;11.974;2023-02-02T09:38:47;100665.41;;;-2.45;100.00
24825;BME280;12910;57.690;11.974;2023-02-02T09:41:18;100681.22;;;-2.46;100.00
24825;BME280;12910;57.690;11.974;2023-02-02T09:46:38;100676.28;;;-2.33;100.00
24825;BME280;12910;57.690;11.974;2023-02-02T09:49:10;100675.59;;;-2.30;100.00
24825;BME280;12910;57.690;11.974;2023-02-02T09:51:42;100683.91;;;-2.20;100.00
24825;BME280;12910;57.690;11.974;2023-02-02T09:54:20;100684.13;;;-2.16;100.00
24825;BME280;12910;57.690;11.974;2023-02-02T09:56:48;100687.81;;;-2.11;100.00
24825;BME280;12910;57.690;11.974;2023-02-02T09:59:28;100688.78;;;-2.09;100.00
24825;BME280;12910;57.690;11.974;2023-02-02T10:01:57;100688.66;;;-2.11;100.00
24825;BME280;12910;57.690;11.974;2023-02-02T10:04:37;100699.56;;;-1.98;100.00
24825;BME280;12910;57.690;11.974;2023-02-02T10:07:16;100707.84;;;-1.99;100.00
24825;BME280;12910;57.690;11.974;2023-02-02T10:09:47;100698.69;;;-1.99;100.00
24825;BME280;12910;57.690;11.974;2023-02-02T10:12:32;100709.53;;;-1.86;100.00
24825;BME280;12910;57.690;11.974;2023-02-02T10:15:28;100701.06;;;-1.89;100.00
24825;BME280;12910;57.690;11.974;2023-02-02T10:18:27;100711.09;;;-1.89;100.00
24825;BME280;12910;57.690;11.974;2023-02-02T10:21:00;100726.13;;;-1.77;100.00
24825;BME280;12910;57.690;11.974;2023-02-02T10:23:30;100730.78;;;-1.69;100.00
24825;BME280;12910;57.690;11.974;2023-02-02T10:26:21;100728.19;;;-1.71;100.00
24825;BME280;12910;57.690;11.974;2023-02-02T10:31:41;100723.34;;;-1.68;100.00
24825;BME280;12910;57.690;11.974;2023-02-02T10:37:17;100738.41;;;-1.68;100.00
24825;BME280;12910;57.690;11.974;2023-02-02T10:39:59;100734.06;;;-1.70;100.00
24825;BME280;12910;57.690;11.974;2023-02-02T10:42:46;100736.13;;;-1.65;100.00
24825;BME280;12910;57.690;11.974;2023-02-02T10:45:36;100741.91;;;-1.66;100.00
24825;BME280;12910;57.690;11.974;2023-02-02T10:48:11;100754.66;;;-1.51;100.00
24825;BME280;12910;57.690;11.974;2023-02-02T10:50:42;100747.06;;;-1.64;100.00
24825;BME280;12910;57.690;11.974;2023-02-02T10:53:13;100749.66;;;-1.63;100.00
24825;BME280;12910;57.690;11.974;2023-02-02T10:55:44;100755.69;;;-1.61;100.00
24825;BME280;12910;57.690;11.974;2023-02-02T11:00:55;100768.88;;;-1.51;100.00
24825;BME280;12910;57.690;11.974;2023-02-02T11:03:30;100780.09;;;-1.46;100.00
24825;BME280;12910;57.690;11.974;2023-02-02T11:06:02;100774.28;;;-1.45;100.00
24825;BME280;12910;57.690;11.974;2023-02-02T11:08:49;100777.41;;;-1.36;100.00
24825;BME280;12910;57.690;11.974;2023-02-02T11:11:25;100776.97;;;-1.30;100.00
24825;BME280;12910;57.690;11.974;2023-02-02T11:14:14;100782.28;;;-1.26;100.00
24825;BME280;12910;57.690;11.974;2023-02-02T11:16:44;100789.44;;;-1.32;100.00
24825;BME280;12910;57.690;11.974;2023-02-02T11:21:44;100781.31;;;-1.28;100.00
24825;BME280;12910;57.690;11.974;2023-02-02T11:24:23;100770.28;;;-1.30;100.00
24825;BME280;12910;57.690;11.974;2023-02-02T11:29:28;100770.69;;;-1.23;100.00
24825;BME280;12910;57.690;11.974;2023-02-02T11:31:55;100775.34;;;-1.16;100.00
24825;BME280;12910;57.690;11.974;2023-02-02T11:34:23;100769.78;;;-1.12;100.00
24825;BME280;12910;57.690;11.974;2023-02-02T11:37:10;100756.44;;;-1.11;100.00
24825;BME280;12910;57.690;11.974;2023-02-02T11:39:37;100744.03;;;-1.08;100.00
24825;BME280;12910;57.690;11.974;2023-02-02T11:44:37;100753.63;;;-1.02;100.00
24825;BME280;12910;57.690;11.974;2023-02-02T11:47:04;100763.22;;;-0.97;100.00
24825;BME280;12910;57.690;11.974;2023-02-02T11:49:35;100772.69;;;-1.06;100.00
24825;BME280;12910;57.690;11.974;2023-02-02T11:52:04;100759.53;;;-1.02;100.00
24825;BME280;12910;57.690;11.974;2023-02-02T11:54:36;100750.44;;;-1.00;100.00
24825;BME280;12910;57.690;11.974;2023-02-02T11:57:06;100763.03;;;-0.86;100.00
24825;BME280;12910;57.690;11.974;2023-02-02T11:59:41;100765.00;;;-0.82;100.00
24825;BME280;12910;57.690;11.974;2023-02-02T12:04:53;100778.06;;;-0.74;100.00
24825;BME280;12910;57.690;11.974;2023-02-02T12:07:28;100790.66;;;-0.61;100.00
24825;BME280;12910;57.690;11.974;2023-02-02T12:09:59;100786.69;;;-0.57;100.00
24825;BME280;12910;57.690;11.974;2023-02-02T12:17:45;100785.03;;;-0.43;100.00
24825;BME280;12910;57.690;11.974;2023-02-02T12:20:29;100782.81;;;-0.39;100.00
24825;BME280;12910;57.690;11.974;2023-02-02T12:30:58;100778.75;;;-0.37;100.00
24825;BME280;12910;57.690;11.974;2023-02-02T13:08:26;100806.44;;;0.04;100.00
24825;BME280;12910;57.690;11.974;2023-02-02T13:11:01;100802.94;;;0.02;100.00
24825;BME280;12910;57.690;11.974;2023-02-02T13:13:32;100803.78;;;0.02;100.00
24825;BME280;12910;57.690;11.974;2023-02-02T13:16:11;100811.47;;;0.04;100.00
24825;BME280;12910;57.690;11.974;2023-02-02T13:18:41;100822.78;;;0.10;100.00
24825;BME280;12910;57.690;11.974;2023-02-02T13:21:12;100821.72;;;0.07;100.00
24825;BME280;12910;57.690;11.974;2023-02-02T13:23:48;100828.34;;;0.05;100.00
24825;BME280;12910;57.690;11.974;2023-02-02T13:26:33;100832.41;;;0.03;100.00
24825;BME280;12910;57.690;11.974;2023-02-02T13:29:10;100840.06;;;0.04;100.00
24825;BME280;12910;57.690;11.974;2023-02-02T13:40:41;100847.03;;;0.08;100.00
24825;BME280;12910;57.690;11.974;2023-02-02T13:43:14;100848.09;;;0.12;100.00
24825;BME280;12910;57.690;11.974;2023-02-02T13:45:59;100846.63;;;0.15;100.00
24825;BME280;12910;57.690;11.974;2023-02-02T13:51:33;100857.69;;;0.18;100.00
24825;BME280;12910;57.690;11.974;2023-02-02T14:02:25;100865.31;;;0.33;100.00
24825;BME280;12910;57.690;11.974;2023-02-02T14:04:56;100854.47;;;0.34;100.00
24825;BME280;12910;57.690;11.974;2023-02-02T14:07:50;100873.94;;;0.36;100.00
24825;BME280;12910;57.690;11.974;2023-02-02T14:10:34;100876.91;;;0.44;100.00
24825;BME280;12910;57.690;11.974;2023-02-02T14:13:23;100886.72;;;0.39;100.00
24825;BME280;12910;57.690;11.974;2023-02-02T14:16:21;100876.28;;;0.33;100.00
24825;BME280;12910;57.690;11.974;2023-02-02T14:26:45;100889.50;;;0.57;100.00
24825;BME280;12910;57.690;11.974;2023-02-02T14:31:55;100882.16;;;0.47;100.00
24825;BME280;12910;57.690;11.974;2023-02-02T14:34:28;100891.47;;;0.48;100.00
24825;BME280;12910;57.690;11.974;2023-02-02T14:37:11;100908.28;;;0.48;100.00
24825;BME280;12910;57.690;11.974;2023-02-02T14:48:00;100920.56;;;0.56;100.00
24825;BME280;12910;57.690;11.974;2023-02-02T14:53:06;100908.56;;;0.39;100.00
24825;BME280;12910;57.690;11.974;2023-02-02T14:55:48;100919.50;;;0.39;100.00
24825;BME280;12910;57.690;11.974;2023-02-02T14:58:22;100922.91;;;0.40;100.00
24825;BME280;12910;57.690;11.974;2023-02-02T15:00:55;100924.66;;;0.27;100.00
24825;BME280;12910;57.690;11.974;2023-02-02T15:06:36;100930.00;;;0.32;100.00